Latest Weather Observations for Newcastle Nobbys

IDN60901

Issued at 1:41 pm EDT Saturday 16 October 2021 (issued every 10 minutes, with the page automatically refreshed every 10 minutes)

About weather observations | Map of Sydney area stations | Latest observations for Sydney area | Other Formats
Station Details ID: 061055 Name: NEWCASTLE NOBBYS SIGNAL STATION AWS Lat: -32.92 Lon: 151.80 Height: 33.0 m
Data from the previous 72 hours. | See also: Recent months at Newcastle Nobbys
Date/Time
EDT
Temp
°C
App
Temp
°C
Dew
Point
°C
Rel
Hum
%
Delta-T
°C
Wind Press
QNH
hPa
Press
MSL
hPa
Rain since
9am
mm
Dir  Spd
km/h
Gust
km/h
Spd
kts
Gust
kts
16/01:36pm 20.1 9.6 7.5 44 6.5 WNW 52 70 28 38 - - 0.0
16/01:30pm 20.1 9.3 7.5 44 6.5 WNW 54 70 29 38 - - 0.0
16/01:07pm 20.1 10.1 7.8 45 6.3 WNW 50 70 27 38 - - 0.0
16/01:00pm 20.1 9.7 7.8 45 6.3 WNW 52 70 28 38 - - 0.0
16/12:30pm 19.2 8.7 7.3 46 6.0 WNW 52 80 28 43 - - 0.0
16/12:00pm 18.9 7.7 7.4 47 5.8 WNW 56 80 30 43 - - 0.0
16/11:30am 18.6 8.5 7.4 48 5.7 WNW 50 70 27 38 - - 0.0
16/11:00am 18.3 7.9 7.7 50 5.4 WNW 52 78 28 42 - - 0.0
16/10:30am 17.5 6.9 7.0 50 5.2 WNW 52 72 28 39 - - 0.0
16/10:00am 17.1 6.1 6.9 51 5.1 WNW 54 76 29 41 - - 0.0
16/09:32am 16.9 7.7 7.8 55 4.6 WNW 46 78 25 42 - - 0.0
16/09:30am 16.5 7.2 7.4 55 4.5 WNW 46 61 25 33 - - 0.0
16/09:00am 15.9 7.2 7.7 58 4.1 WNW 43 61 23 33 - - 0.0
16/08:54am 15.5 6.8 7.8 60 3.9 WNW 43 61 23 33 - - 0.0
16/08:30am 14.4 7.2 7.7 64 3.3 NW 35 50 19 27 - - 0.0
16/08:01am 13.9 7.2 8.1 68 2.9 NW 33 52 18 28 - - 0.0
16/08:00am 13.9 7.2 8.3 69 2.8 NW 33 48 18 26 - - 0.0
16/07:46am 13.4 6.7 7.4 67 2.9 WNW 32 50 17 27 - - 0.0
16/07:30am 13.3 6.5 7.5 68 2.8 WNW 33 46 18 25 - - 0.0
16/07:00am 13.1 5.9 7.8 70 2.6 NW 35 46 19 25 - - 0.0
16/06:30am 12.9 5.8 8.0 72 2.4 NW 35 50 19 27 - - 0.0
16/06:00am 12.8 6.9 7.7 71 2.5 NW 28 39 15 21 - - 0.0
16/05:30am 12.9 6.7 7.8 71 2.5 NW 30 41 16 22 - - 0.0
16/05:00am 12.9 6.1 7.6 70 2.6 WNW 33 46 18 25 - - 0.0
16/04:30am 12.8 6.0 7.7 71 2.5 WNW 33 48 18 26 - - 0.0
16/04:00am 12.8 5.7 7.9 72 2.4 WNW 35 50 19 27 - - 0.0
16/03:47am 12.7 6.1 7.8 72 2.4 WNW 32 57 17 31 - - 0.0
16/03:30am 12.7 6.1 7.8 72 2.4 WNW 32 43 17 23 - - 0.0
16/03:00am 12.8 5.3 7.9 72 2.4 WNW 37 52 20 28 - - 0.0
16/02:43am 12.7 5.1 7.4 70 2.6 WNW 37 56 20 30 - - 0.0
16/02:30am 12.7 5.5 7.8 72 2.4 WNW 35 46 19 25 - - 0.0
16/02:00am 12.5 5.6 7.4 71 2.5 WNW 33 48 18 26 - - 0.0
16/01:30am 12.7 5.1 7.4 70 2.6 WNW 37 50 20 27 - - 0.0
16/01:00am 12.8 5.9 7.3 69 2.7 NW 33 44 18 24 - - 0.0
16/12:30am 13.1 6.3 7.8 70 2.6 NW 33 48 18 26 - - 0.0
16/12:00am 13.4 5.8 7.6 68 2.8 NW 37 48 20 26 - - 0.0
 
Date/Time
EDT
Temp
°C
App
Temp
°C
Dew
Point
°C
Rel
Hum
%
Delta-T
°C
Wind Press
QNH
hPa
Press
MSL
hPa
Rain since
9am
mm
Dir  Spd
km/h
Gust
km/h
Spd
kts
Gust
kts
15/11:30pm 13.5 6.3 7.5 67 2.9 NW 35 50 19 27 - - 0.0
15/11:00pm 13.4 6.9 8.3 71 2.5 NW 32 44 17 24 - - 0.0
15/10:33pm 13.5 6.9 8.6 72 2.5 WNW 33 52 18 28 - - 0.0
15/10:30pm 13.4 6.7 8.3 71 2.5 WNW 33 44 18 24 - - 0.0
15/10:00pm 13.6 7.9 8.4 71 2.6 NW 28 41 15 22 - - 0.0
15/09:30pm 14.0 8.4 8.6 70 2.7 NW 28 41 15 22 - - 0.0
15/09:00pm 14.7 7.7 8.6 67 3.1 NW 35 50 19 27 - - 0.0
15/08:30pm 15.1 6.4 7.9 62 3.6 NW 43 59 23 32 - - 0.0
15/08:00pm 16.0 6.5 6.7 54 4.6 WNW 46 69 25 37 - - 0.0
15/07:47pm 16.2 7.6 6.6 53 4.7 WNW 41 67 22 36 - - 0.0
15/07:30pm 16.3 8.6 7.0 54 4.6 NW 37 50 20 27 - - 0.0
15/07:00pm 16.4 9.1 7.1 54 4.6 WNW 35 52 19 28 - - 0.0
15/06:32pm 16.6 8.6 7.5 55 4.6 W 39 57 21 31 - - 0.0
15/06:30pm 16.6 8.6 7.3 54 4.6 W 39 50 21 27 - - 0.0
15/06:00pm 17.0 10.4 7.6 54 4.7 W 32 43 17 23 - - 0.0
15/05:31pm 19.0 10.1 6.8 45 6.1 W 43 61 23 33 - - 0.0
15/05:30pm 19.1 10.3 7.2 46 6.0 W 43 56 23 30 - - 0.0
15/05:09pm 19.7 12.9 7.1 44 6.4 WNW 32 65 17 35 - - 0.0
15/05:00pm 19.7 14.0 6.8 43 6.5 WNW 26 35 14 19 - - 0.0
15/04:39pm 18.6 10.6 7.4 48 5.7 WNW 39 72 21 39 - - 0.0
15/04:38pm 19.1 11.5 7.5 47 5.9 WNW 37 72 20 39 - - 0.0
15/04:37pm 19.8 12.8 6.9 43 6.5 WNW 33 72 18 39 - - 0.0
15/04:35pm 20.4 13.9 6.4 40 7.0 WNW 30 46 16 25 - - 0.0
15/04:30pm 20.3 13.4 6.6 41 6.9 WNW 32 52 17 28 - - 0.0
15/04:13pm 21.8 12.5 5.7 35 8.1 NW 44 65 24 35 - - 0.0
15/04:00pm 21.6 12.2 5.5 35 8.0 WNW 44 59 24 32 - - 0.0
15/03:31pm 21.9 13.0 5.3 34 8.3 WNW 41 59 22 32 - - 0.0
15/03:30pm 21.9 13.2 5.8 35 8.1 WNW 41 59 22 32 - - 0.0
15/03:00pm 21.4 12.3 6.1 37 7.7 WNW 43 69 23 37 - - 0.0
15/02:30pm 21.2 11.2 6.3 38 7.5 NW 48 76 26 41 - - 0.0
15/02:11pm 21.4 13.0 5.7 36 7.8 NW 39 59 21 32 - - 0.0
15/02:00pm 21.0 11.6 5.4 36 7.7 NW 44 59 24 32 - - 0.0
15/01:30pm 20.7 11.4 5.9 38 7.4 NW 44 65 24 35 - - 0.0
15/01:22pm 20.4 11.9 5.2 37 7.5 NW 39 59 21 32 - - 0.0
15/01:00pm 20.2 11.8 5.4 38 7.3 WNW 39 54 21 29 - - 0.0
15/12:33pm 20.6 10.7 5.0 36 7.6 NW 46 67 25 36 - - 0.0
15/12:30pm 21.0 11.5 5.0 35 7.9 NW 44 63 24 34 - - 0.0
15/12:00pm 21.0 12.3 5.8 37 7.6 WNW 41 67 22 36 - - 0.0
15/11:59am 21.1 12.4 5.9 37 7.6 WNW 41 67 22 36 - - 0.0
15/11:30am 20.1 13.3 7.8 45 6.3 NW 33 43 18 23 - - 0.0
15/11:00am 20.3 16.1 8.3 46 6.3 W 20 28 11 15 - - 0.0
15/10:30am 20.0 16.9 10.4 54 5.2 WNW 17 28 9 15 - - 0.0
15/10:00am 17.9 15.5 12.6 71 3.0 WSW 17 26 9 14 - - 0.0
15/09:30am 17.1 14.1 12.4 74 2.6 WSW 20 32 11 17 - - 0.0
15/09:00am 17.8 15.2 13.9 78 2.2 SSW 20 30 11 16 - - 0.8
15/08:30am 17.7 15.6 14.8 83 1.7 SSW 19 28 10 15 - - 0.8
15/08:00am 17.6 14.7 13.9 79 2.1 WSW 22 30 12 16 - - 0.8
15/07:30am 16.9 15.3 15.1 89 1.0 NW 17 24 9 13 - - 0.8
15/07:00am 16.9 17.0 15.4 91 0.9 NW 9 13 5 7 - - 0.8
15/06:30am 16.8 16.8 15.3 91 0.9 NNW 9 11 5 6 - - 0.8
15/06:00am 16.7 17.6 15.1 90 0.9 NNW 4 6 2 3 - - 0.8
15/05:30am 17.1 16.9 15.6 91 0.9 WNW 11 15 6 8 - - 0.8
15/05:00am 17.4 17.6 15.7 90 1.0 NNW 9 11 5 6 - - 0.8
15/04:30am 17.5 18.2 15.7 89 1.1 NNW 6 7 3 4 - - 0.8
15/04:00am 17.7 18.8 15.5 87 1.3 WNW 4 7 2 4 - - 0.8
15/03:30am 18.3 18.8 15.6 84 1.6 NW 7 11 4 6 - - 0.8
15/03:00am 18.8 19.1 15.9 83 1.7 NNW 9 13 5 7 - - 0.8
15/02:30am 18.9 20.1 15.8 82 1.8 NW 4 9 2 5 - - 0.8
15/02:00am 18.9 18.0 15.8 82 1.8 N 15 19 8 10 - - 0.8
15/01:30am 19.3 17.5 16.0 81 2.0 N 20 24 11 13 - - 0.8
15/01:00am 18.8 17.7 16.4 86 1.4 N 17 20 9 11 - - 0.8
15/12:30am 19.2 17.5 16.2 83 1.8 NNE 20 24 11 13 - - 0.8
15/12:00am 19.2 17.7 16.2 83 1.8 NW 19 24 10 13 - - 0.8
 
Date/Time
EDT
Temp
°C
App
Temp
°C
Dew
Point
°C
Rel
Hum
%
Delta-T
°C
Wind Press
QNH
hPa
Press
MSL
hPa
Rain since
9am
mm
Dir  Spd
km/h
Gust
km/h
Spd
kts
Gust
kts
14/11:30pm 18.9 17.6 16.7 87 1.3 NW 19 26 10 14 - - 0.8
14/11:00pm 18.8 18.6 16.8 88 1.2 NNW 13 19 7 10 - - 0.8
14/10:30pm 19.0 16.5 17.0 88 1.2 NNE 26 32 14 17 - - 0.8
14/10:00pm 19.1 16.2 17.1 88 1.2 NNE 28 35 15 19 - - 0.8
14/09:30pm 19.4 16.9 17.2 87 1.3 N 26 35 14 19 - - 0.8
14/09:00pm 19.6 17.2 17.4 87 1.3 NNE 26 39 14 21 - - 0.8
14/08:30pm 20.2 17.4 17.2 83 1.8 NNE 28 35 15 19 - - 0.2
14/08:00pm 20.4 17.9 17.2 82 2.0 NNE 26 33 14 18 - - 0.2
14/07:30pm 20.6 17.8 17.2 81 2.1 NNE 28 35 15 19 - - 0.2
14/07:00pm 20.9 19.6 17.3 80 2.2 NE 20 30 11 16 - - 0.2
14/06:30pm 21.1 19.1 17.3 79 2.3 NE 24 33 13 18 - - 0.2
14/06:00pm 21.4 19.4 17.4 78 2.5 NE 24 35 13 19 - - 0.2
14/05:30pm 21.6 19.7 16.8 74 2.9 NE 22 35 12 19 - - 0.2
14/05:00pm 22.0 19.2 17.2 74 3.0 ENE 28 39 15 21 - - 0.2
14/04:51pm 21.2 17.1 17.4 79 2.3 E 35 48 19 26 - - 0.2
14/04:30pm 20.4 15.1 16.4 78 2.4 SE 39 52 21 28 - - 0.2
14/04:25pm 20.6 17.5 17.4 82 2.0 ESE 30 52 16 28 - - 0.2
14/04:12pm 20.8 18.0 17.2 80 2.2 E 28 41 15 22 - - 0.2
14/04:00pm 20.4 17.6 17.4 83 1.8 NE 28 39 15 21 - - 0.2
14/03:30pm 21.1 18.5 16.9 77 2.6 ENE 26 35 14 19 - - 0.0
14/03:00pm 21.0 17.4 17.2 79 2.3 ENE 32 39 17 21 - - 0.0
14/02:30pm 20.0 15.7 17.0 83 1.8 ENE 35 44 19 24 - - 0.0
14/02:00pm 20.6 17.4 17.2 81 2.1 ENE 30 37 16 20 - - 0.0
14/01:30pm 20.8 18.3 17.2 80 2.2 ENE 26 39 14 21 - - 0.0
14/01:00pm 20.9 19.1 16.9 78 2.4 ENE 22 28 12 15 - - 0.0
14/12:30pm 22.7 20.7 16.5 68 3.8 NE 22 30 12 16 - - 0.0
14/12:00pm 22.4 20.4 16.4 69 3.6 NE 22 32 12 17 - - 0.0
14/11:30am 21.5 18.6 16.2 72 3.2 NE 26 35 14 19 - - 0.0
14/11:00am 21.1 19.7 16.5 75 2.8 NE 19 30 10 16 - - 0.0
14/10:30am 20.4 19.2 16.2 77 2.5 NE 17 32 9 17 - - 0.0
14/10:00am 20.2 18.5 15.8 76 2.6 NNE 19 24 10 13 - - 0.0
14/09:30am 19.6 17.8 15.9 79 2.2 NNE 20 30 11 16 - - 0.0
14/09:00am 19.0 17.7 15.7 81 2.0 NNE 17 22 9 12 - - 1.4
14/08:30am 18.3 16.3 15.6 84 1.6 NNE 20 26 11 14 - - 1.4
14/08:00am 17.4 16.3 15.2 87 1.3 N 15 19 8 10 - - 1.4
14/07:30am 16.8 14.6 15.0 89 1.0 NNE 20 24 11 13 - - 1.4
14/07:00am 16.7 14.6 14.7 88 1.2 NNE 19 28 10 15 - - 1.4
14/06:30am 16.7 14.6 14.7 88 1.2 NNE 19 26 10 14 - - 1.4
14/06:00am 16.8 15.1 14.6 87 1.3 NE 17 24 9 13 - - 1.4
14/05:30am 16.4 14.9 14.2 87 1.3 NE 15 22 8 12 - - 1.2
14/05:00am 17.1 14.3 14.2 83 1.7 NNE 22 32 12 17 - - 0.6
14/04:30am 17.2 14.9 14.1 82 1.8 NE 19 28 10 15 - - 0.6
14/04:00am 17.4 15.0 13.9 80 2.0 NNE 19 28 10 15 - - 0.6
14/03:30am 17.3 14.8 13.6 79 2.1 NNE 19 26 10 14 - - 0.6
14/03:00am 17.1 14.2 14.0 82 1.8 NE 22 30 12 16 - - 0.6
14/02:30am 17.1 14.7 13.8 81 1.9 NE 19 28 10 15 - - 0.6
14/02:00am 17.1 14.4 13.6 80 2.0 NE 20 28 11 15 - - 0.6
14/01:30am 17.0 14.6 13.7 81 1.9 NE 19 28 10 15 - - 0.6
14/01:00am 16.9 13.5 13.8 82 1.8 NE 24 32 13 17 - - 0.6
14/12:30am 16.9 14.0 14.0 83 1.7 NE 22 32 12 17 - - 0.6
14/12:00am 16.8 13.1 13.9 83 1.6 NE 26 33 14 18 - - 0.6
 
Date/Time
EDT
Temp
°C
App
Temp
°C
Dew
Point
°C
Rel
Hum
%
Delta-T
°C
Wind Press
QNH
hPa
Press
MSL
hPa
Rain since
9am
mm
Dir  Spd
km/h
Gust
km/h
Spd
kts
Gust
kts
13/11:30pm 17.0 13.2 13.7 81 1.9 NE 26 33 14 18 - - 0.6
13/11:00pm 17.1 13.5 13.2 78 2.2 NE 24 33 13 18 - - 0.6
13/10:30pm 17.1 13.6 13.4 79 2.1 NE 24 33 13 18 - - 0.6
13/10:00pm 17.1 14.8 14.6 85 1.4 NE 20 28 11 15 - - 0.6
13/09:30pm 17.1 13.6 14.4 84 1.5 ENE 26 32 14 17 - - 0.6
13/09:00pm 16.9 14.7 14.4 85 1.4 NE 19 28 10 15 - - 0.4
13/08:30pm 17.2 13.4 13.7 80 2.0 NE 26 39 14 21 - - 0.4
13/08:00pm 17.2 13.4 13.7 80 2.0 NE 26 33 14 18 - - 0.4
13/07:30pm 17.6 13.8 13.5 77 2.3 NE 26 39 14 21 - - 0.4
13/07:00pm 18.0 14.6 13.7 76 2.4 NE 24 35 13 19 - - 0.4
13/06:30pm 18.2 14.5 12.6 70 3.1 NE 24 37 13 20 - - 0.4
13/06:00pm 18.3 13.4 12.5 69 3.2 NE 30 41 16 22 - - 0.4
13/05:30pm 18.2 13.8 12.9 71 3.0 NE 28 35 15 19 - - 0.4
13/05:00pm 18.5 13.6 12.7 69 3.2 NE 30 43 16 23 - - 0.4
13/04:30pm 18.5 14.6 13.4 72 2.9 NE 26 35 14 19 - - 0.4
13/04:00pm 18.3 14.1 13.6 74 2.7 NE 28 37 15 20 - - 0.4
13/03:30pm 18.2 13.6 13.5 74 2.7 NE 30 39 16 21 - - 0.4
13/03:00pm 18.1 13.9 13.4 74 2.7 NE 28 35 15 19 - - 0.4
13/02:30pm 17.4 14.5 14.1 81 1.9 NE 22 28 12 15 - - 0.4
13/02:00pm 17.2 14.4 14.3 83 1.7 NE 22 30 12 16 - - 0.2

Latest Capital City Observations: Canberra | Sydney | Melbourne | Brisbane | Adelaide | Perth | Hobart | Darwin

Other formats

Comma delimited format used in spreadsheet applications
http://www.bom.gov.au/fwo/IDN60901/IDN60901.94774.axf

JavaScript Object Notation format (JSON) in row-major order
http://www.bom.gov.au/fwo/IDN60901/IDN60901.94774.json

Data quality

Most of these data are generated automatically and are frequently updated. Quality checks on data are not normally performed. It is possible for incorrect values to appear. Refer to information at About Latest Weather Observations and please check the disclaimer before using these data.